createdAt,value
2023-01-29T00:02:12.025Z,-0.10
2023-01-29T00:04:39.189Z,-0.14
2023-01-29T00:07:05.979Z,-0.23
2023-01-29T00:09:33.192Z,-0.24
2023-01-29T00:12:00.431Z,-0.26
2023-01-29T00:14:27.610Z,-0.34
2023-01-29T00:16:54.806Z,-0.31
2023-01-29T00:19:21.893Z,-0.30
2023-01-29T00:21:48.733Z,-0.31
2023-01-29T00:24:15.701Z,-0.37
2023-01-29T00:26:43.209Z,-0.31
2023-01-29T00:29:10.346Z,-0.37
2023-01-29T00:31:37.786Z,-0.36
2023-01-29T00:34:04.758Z,-0.44
2023-01-29T00:36:31.599Z,-0.37
2023-01-29T00:38:59.716Z,-0.37
2023-01-29T00:41:50.557Z,-0.35
2023-01-29T00:44:36.532Z,-0.35
2023-01-29T00:47:04.258Z,-0.39
2023-01-29T00:49:31.395Z,-0.41
2023-01-29T00:52:18.020Z,-0.54
2023-01-29T00:54:44.803Z,-0.55
2023-01-29T00:57:11.667Z,-0.50
2023-01-29T00:59:38.540Z,-0.46
2023-01-29T01:02:23.933Z,-0.46
2023-01-29T01:04:50.963Z,-0.42
2023-01-29T01:07:17.798Z,-0.46
2023-01-29T01:10:05.307Z,-0.49
2023-01-29T01:12:32.533Z,-0.47
2023-01-29T01:14:59.425Z,-0.38
2023-01-29T01:17:26.375Z,-0.32
2023-01-29T01:19:53.643Z,-0.31
2023-01-29T01:22:20.694Z,-0.26
2023-01-29T01:24:47.532Z,-0.27
2023-01-29T01:27:14.349Z,-0.22
2023-01-29T01:29:41.389Z,-0.24
2023-01-29T01:32:08.470Z,-0.28
2023-01-29T01:34:35.823Z,-0.22
2023-01-29T01:37:02.815Z,-0.24
2023-01-29T01:39:29.709Z,-0.22
2023-01-29T01:41:56.584Z,-0.22
2023-01-29T01:44:51.254Z,-0.28
2023-01-29T01:47:21.083Z,-0.20
2023-01-29T01:49:48.684Z,-0.25
2023-01-29T01:52:16.596Z,-0.34
2023-01-29T01:54:44.268Z,-0.36
2023-01-29T01:57:16.556Z,-0.41
2023-01-29T01:59:48.197Z,-0.31
2023-01-29T02:02:34.490Z,-0.31
2023-01-29T02:05:19.941Z,-0.22
2023-01-29T02:08:06.768Z,-0.22
2023-01-29T02:10:38.386Z,-0.31
2023-01-29T02:13:06.520Z,-0.31
2023-01-29T02:15:33.810Z,-0.32
2023-01-29T02:18:00.753Z,-0.33
2023-01-29T02:20:31.918Z,-0.49
2023-01-29T02:23:10.895Z,-0.34
2023-01-29T02:25:52.605Z,-0.36
2023-01-29T02:28:31.457Z,-0.30
2023-01-29T02:31:09.466Z,-0.28
2023-01-29T02:33:51.546Z,-0.17
2023-01-29T02:36:37.103Z,-0.10
2023-01-29T02:39:34.173Z,-0.03
2023-01-29T02:42:27.203Z,-0.01
2023-01-29T02:44:59.448Z,-0.01
2023-01-29T02:47:45.735Z,-0.05
2023-01-29T02:50:28.274Z,-0.04
2023-01-29T02:53:17.054Z,-0.09
2023-01-29T02:55:52.082Z,-0.11
2023-01-29T02:58:30.605Z,-0.14
2023-01-29T03:01:03.132Z,-0.14
2023-01-29T03:03:40.961Z,-0.13
2023-01-29T03:06:19.369Z,-0.15
2023-01-29T03:08:51.214Z,-0.11
2023-01-29T03:11:18.621Z,-0.07
2023-01-29T03:14:01.235Z,-0.07
2023-01-29T03:16:34.419Z,-0.09
2023-01-29T03:19:06.958Z,-0.04
2023-01-29T03:21:59.068Z,-0.01
2023-01-29T03:25:06.487Z,-0.01
2023-01-29T03:27:56.203Z,0.05
2023-01-29T03:30:44.429Z,-0.01
2023-01-29T03:33:12.558Z,-0.06
2023-01-29T03:35:43.567Z,-0.06
2023-01-29T03:38:11.650Z,-0.09
2023-01-29T03:40:53.388Z,-0.07
2023-01-29T03:43:35.757Z,-0.03
2023-01-29T03:46:11.461Z,0.09
2023-01-29T03:48:43.555Z,0.17
2023-01-29T03:51:52.912Z,0.20
2023-01-29T03:55:00.850Z,0.23
2023-01-29T03:57:35.496Z,0.24
2023-01-29T04:00:18.768Z,0.28
2023-01-29T04:02:55.730Z,0.30
2023-01-29T04:05:25.785Z,0.32
2023-01-29T04:07:56.188Z,0.22
2023-01-29T04:10:26.992Z,0.16
2023-01-29T04:13:00.345Z,0.15
2023-01-29T04:15:30.008Z,0.07
2023-01-29T04:17:57.365Z,0.12
2023-01-29T04:20:24.972Z,0.14
2023-01-29T04:22:52.907Z,0.15
2023-01-29T04:25:26.634Z,0.26
2023-01-29T04:28:15.417Z,0.32
2023-01-29T04:30:56.504Z,0.40
2023-01-29T04:33:57.841Z,0.45
2023-01-29T04:36:49.040Z,0.50
2023-01-29T04:39:45.144Z,0.53
2023-01-29T04:42:16.974Z,0.54
2023-01-29T04:45:20.551Z,0.54
2023-01-29T04:47:53.853Z,0.54
2023-01-29T04:50:27.664Z,0.53
2023-01-29T04:53:17.796Z,0.57
2023-01-29T04:55:50.291Z,0.60
2023-01-29T04:58:28.992Z,0.55
2023-01-29T05:00:56.725Z,0.60
2023-01-29T05:03:25.694Z,0.52
2023-01-29T05:05:54.335Z,0.57
2023-01-29T05:08:23.535Z,0.55
2023-01-29T05:10:52.041Z,0.61
2023-01-29T05:13:20.299Z,0.59
2023-01-29T05:16:16.665Z,0.50
2023-01-29T05:18:43.776Z,0.39
2023-01-29T05:21:10.897Z,0.38
2023-01-29T05:23:37.943Z,0.28
2023-01-29T05:26:05.177Z,0.27
2023-01-29T05:28:32.149Z,0.28
2023-01-29T05:30:59.074Z,0.32
2023-01-29T05:33:30.695Z,0.32
2023-01-29T05:35:59.849Z,0.30
2023-01-29T05:38:26.891Z,0.36
2023-01-29T05:40:54.393Z,0.34
2023-01-29T05:43:23.881Z,0.40
2023-01-29T05:45:58.858Z,0.42
2023-01-29T05:48:28.830Z,0.53
2023-01-29T05:51:03.858Z,0.52
2023-01-29T05:53:31.745Z,0.64
2023-01-29T05:56:01.741Z,0.64
2023-01-29T05:58:30.968Z,0.64
2023-01-29T06:00:58.180Z,0.72
2023-01-29T06:03:25.074Z,0.64
2023-01-29T06:05:51.973Z,0.61
2023-01-29T06:08:18.909Z,0.58
2023-01-29T06:10:46.375Z,0.63
2023-01-29T06:13:13.214Z,0.59
2023-01-29T06:15:41.006Z,0.52
2023-01-29T06:18:08.366Z,0.49
2023-01-29T06:20:35.331Z,0.51
2023-01-29T06:23:02.207Z,0.50
2023-01-29T06:25:29.125Z,0.48
2023-01-29T06:27:59.111Z,0.44
2023-01-29T06:30:28.184Z,0.46
2023-01-29T06:32:58.944Z,0.49
2023-01-29T06:35:26.238Z,0.47
2023-01-29T06:37:53.184Z,0.44
2023-01-29T06:40:20.334Z,0.40
2023-01-29T06:42:47.251Z,0.42
2023-01-29T06:45:14.221Z,0.41
2023-01-29T06:47:41.039Z,0.42
2023-01-29T06:50:08.397Z,0.44
2023-01-29T06:52:35.580Z,0.43
2023-01-29T06:55:02.439Z,0.42
2023-01-29T06:57:30.200Z,0.45
2023-01-29T06:59:58.474Z,0.50
2023-01-29T07:02:25.352Z,0.49
2023-01-29T07:04:52.838Z,0.53
2023-01-29T07:07:19.749Z,0.48
2023-01-29T07:09:47.365Z,0.50
2023-01-29T07:12:14.172Z,0.50
2023-01-29T07:14:41.003Z,0.47
2023-01-29T07:17:07.827Z,0.51
2023-01-29T07:19:34.721Z,0.49
2023-01-29T07:22:03.280Z,0.49
2023-01-29T07:24:30.247Z,0.50
2023-01-29T07:26:57.330Z,0.46
2023-01-29T07:29:24.342Z,0.53
2023-01-29T07:31:51.492Z,0.56
2023-01-29T07:34:21.077Z,0.53
2023-01-29T07:36:47.976Z,0.54
2023-01-29T07:39:14.955Z,0.55
2023-01-29T07:41:42.660Z,0.56
2023-01-29T07:44:09.630Z,0.57
2023-01-29T07:46:36.473Z,0.65
2023-01-29T07:49:03.481Z,0.68
2023-01-29T07:51:30.319Z,0.78
2023-01-29T07:53:57.155Z,0.82
2023-01-29T07:56:24.036Z,0.85
2023-01-29T07:58:50.959Z,0.71
2023-01-29T08:01:17.942Z,0.79
2023-01-29T08:03:44.870Z,0.82
2023-01-29T08:06:11.879Z,0.75
2023-01-29T08:08:38.785Z,0.76
2023-01-29T08:11:05.782Z,0.86
2023-01-29T08:13:33.247Z,0.73
2023-01-29T08:16:01.423Z,0.68
2023-01-29T08:18:28.544Z,0.65
2023-01-29T08:21:02.248Z,0.68
2023-01-29T08:23:29.408Z,0.63
2023-01-29T08:25:56.271Z,0.63
2023-01-29T08:28:23.365Z,0.75
2023-01-29T08:30:50.196Z,0.67
2023-01-29T08:33:19.471Z,0.66
2023-01-29T08:35:51.952Z,0.64
2023-01-29T08:38:19.097Z,0.57
2023-01-29T08:40:46.056Z,0.55
2023-01-29T08:43:13.737Z,0.58
2023-01-29T08:45:42.976Z,0.59
2023-01-29T08:48:10.730Z,0.61
2023-01-29T08:50:38.738Z,0.68
2023-01-29T08:53:08.821Z,0.65
2023-01-29T08:55:37.649Z,0.63
2023-01-29T08:58:09.761Z,0.76
2023-01-29T09:00:36.960Z,0.65
2023-01-29T09:03:03.941Z,0.63
2023-01-29T09:05:30.960Z,0.66
2023-01-29T09:07:58.165Z,0.70
2023-01-29T09:10:26.678Z,0.75
2023-01-29T09:12:53.551Z,0.77
2023-01-29T09:15:20.427Z,0.81
2023-01-29T09:17:49.519Z,0.86
2023-01-29T09:20:18.126Z,0.86
2023-01-29T09:22:47.079Z,0.83
2023-01-29T09:25:15.615Z,0.90
2023-01-29T09:27:49.442Z,0.87
2023-01-29T09:30:17.709Z,0.90
2023-01-29T09:32:53.895Z,0.93
2023-01-29T09:35:24.243Z,0.98
2023-01-29T09:37:52.052Z,0.95
2023-01-29T09:40:58.135Z,0.93
2023-01-29T09:43:32.783Z,1.00
2023-01-29T09:46:18.928Z,1.00
2023-01-29T09:48:46.749Z,1.00
2023-01-29T09:51:24.754Z,1.08
2023-01-29T09:54:11.175Z,1.12
2023-01-29T09:56:38.004Z,1.05
2023-01-29T09:59:05.053Z,1.05
2023-01-29T10:01:48.535Z,1.06
2023-01-29T10:04:21.188Z,1.04
2023-01-29T10:07:06.852Z,1.08
2023-01-29T10:09:43.310Z,1.09
2023-01-29T10:12:28.714Z,1.11
2023-01-29T10:15:04.658Z,1.10
2023-01-29T10:17:50.601Z,1.00
2023-01-29T10:20:40.586Z,1.00
2023-01-29T10:23:16.843Z,0.95
2023-01-29T10:25:45.793Z,0.96
2023-01-29T10:28:21.714Z,1.00
2023-01-29T10:30:56.380Z,1.05
2023-01-29T10:33:54.281Z,1.02
2023-01-29T10:36:33.487Z,1.09
2023-01-29T10:39:00.437Z,1.08
2023-01-29T10:41:34.238Z,1.08
2023-01-29T10:44:22.827Z,1.10
2023-01-29T10:47:12.628Z,1.06
2023-01-29T10:50:10.597Z,1.08
2023-01-29T10:52:46.877Z,1.11
2023-01-29T10:55:19.889Z,1.10
2023-01-29T10:58:17.080Z,1.21
2023-01-29T11:00:44.374Z,1.10
2023-01-29T11:03:32.144Z,1.08
2023-01-29T11:06:19.190Z,1.19
2023-01-29T11:08:49.329Z,1.22
2023-01-29T11:11:18.400Z,1.29
2023-01-29T11:13:57.243Z,1.16
2023-01-29T11:16:30.285Z,1.17
2023-01-29T11:18:59.617Z,1.19
2023-01-29T11:21:28.169Z,1.17
2023-01-29T11:24:12.811Z,1.17
2023-01-29T11:26:41.196Z,1.20
2023-01-29T11:29:27.370Z,1.12
2023-01-29T11:31:54.317Z,1.09
2023-01-29T11:34:25.199Z,1.15
2023-01-29T11:37:02.929Z,1.10
2023-01-29T11:39:31.250Z,1.09
2023-01-29T11:41:58.605Z,1.17
2023-01-29T11:44:28.426Z,1.07
2023-01-29T11:46:57.139Z,1.00
2023-01-29T11:49:34.954Z,0.97
2023-01-29T11:52:07.586Z,1.00
2023-01-29T11:54:43.499Z,1.07
2023-01-29T11:57:32.367Z,0.98
2023-01-29T12:00:07.594Z,1.01
2023-01-29T12:02:42.509Z,1.00
2023-01-29T12:05:21.100Z,0.99
2023-01-29T12:07:53.750Z,0.92
2023-01-29T12:10:35.471Z,0.95
2023-01-29T12:13:11.986Z,1.04
2023-01-29T12:15:39.970Z,1.10
2023-01-29T12:18:18.094Z,1.04
2023-01-29T12:20:52.517Z,1.05
2023-01-29T12:23:44.432Z,0.99
2023-01-29T12:26:18.588Z,0.93
2023-01-29T12:29:03.616Z,0.85
2023-01-29T12:31:55.493Z,0.84
2023-01-29T12:34:27.949Z,0.95
2023-01-29T12:37:22.359Z,0.93
2023-01-29T12:39:51.520Z,0.83
2023-01-29T12:42:20.814Z,0.90
2023-01-29T12:44:55.239Z,0.92
2023-01-29T12:47:27.034Z,0.84
2023-01-29T12:49:57.460Z,0.79
2023-01-29T12:52:37.987Z,0.80
2023-01-29T12:55:19.480Z,0.78
2023-01-29T12:58:00.758Z,0.82
2023-01-29T13:00:37.774Z,0.92
2023-01-29T13:03:17.271Z,0.92
2023-01-29T13:05:46.412Z,1.06
2023-01-29T13:08:24.790Z,1.07
2023-01-29T13:10:53.585Z,1.28
2023-01-29T13:13:42.883Z,1.25
2023-01-29T13:16:12.775Z,1.30
2023-01-29T13:18:57.338Z,1.20
2023-01-29T13:21:35.543Z,1.32
2023-01-29T13:24:05.562Z,1.37
2023-01-29T13:26:34.508Z,1.27
2023-01-29T13:29:02.445Z,1.49
2023-01-29T13:31:31.788Z,1.41
2023-01-29T13:34:14.653Z,1.25
2023-01-29T13:36:46.643Z,1.24
2023-01-29T13:39:39.687Z,1.19
2023-01-29T13:42:34.668Z,1.11
2023-01-29T13:45:03.646Z,1.28
2023-01-29T13:47:33.388Z,1.45
2023-01-29T13:50:29.210Z,1.36
2023-01-29T13:53:04.013Z,1.57
2023-01-29T13:55:31.790Z,1.57
2023-01-29T13:58:00.529Z,1.61
2023-01-29T14:00:33.702Z,1.70
2023-01-29T14:03:00.740Z,1.95
2023-01-29T14:05:30.443Z,1.79
2023-01-29T14:08:07.026Z,1.59
2023-01-29T14:10:36.419Z,1.50
2023-01-29T14:13:03.823Z,1.52
2023-01-29T14:15:35.571Z,1.48
2023-01-29T14:18:08.510Z,1.37
2023-01-29T14:20:45.652Z,1.32
2023-01-29T14:23:28.559Z,1.12
2023-01-29T14:25:55.844Z,1.19
2023-01-29T14:28:25.292Z,1.09
2023-01-29T14:30:52.821Z,1.12
2023-01-29T14:33:37.940Z,0.98
2023-01-29T14:36:08.231Z,0.84
2023-01-29T14:38:35.541Z,0.71
2023-01-29T14:41:20.763Z,0.61
2023-01-29T14:43:47.608Z,0.54
2023-01-29T14:46:41.352Z,0.51
2023-01-29T14:49:09.734Z,0.36
2023-01-29T14:51:39.787Z,0.31
2023-01-29T14:54:15.839Z,0.25
2023-01-29T14:57:11.120Z,0.14
2023-01-29T14:59:44.129Z,0.09
2023-01-29T15:02:19.060Z,0.20
2023-01-29T15:04:49.447Z,0.23
2023-01-29T15:07:47.611Z,0.08
2023-01-29T15:10:27.569Z,0.04
2023-01-29T15:13:05.216Z,-0.15
2023-01-29T15:15:34.738Z,-0.09
2023-01-29T15:18:15.475Z,-0.16
2023-01-29T15:20:43.870Z,-0.14
2023-01-29T15:23:28.382Z,-0.20
2023-01-29T15:25:57.006Z,-0.17
2023-01-29T15:28:24.547Z,-0.26
2023-01-29T15:30:54.862Z,-0.28
2023-01-29T15:33:22.517Z,-0.25
2023-01-29T15:35:51.642Z,-0.26
2023-01-29T15:38:22.568Z,-0.48
2023-01-29T15:41:03.993Z,-0.50
2023-01-29T15:43:37.717Z,-0.48
2023-01-29T15:46:10.067Z,-0.50
2023-01-29T15:48:40.969Z,-0.51
2023-01-29T15:51:12.046Z,-0.56
2023-01-29T15:53:54.406Z,-0.63
2023-01-29T15:56:28.420Z,-0.72
2023-01-29T15:58:58.069Z,-0.62
2023-01-29T16:01:29.744Z,-0.69
2023-01-29T16:03:59.390Z,-0.70
2023-01-29T16:06:37.339Z,-0.77
2023-01-29T16:09:05.300Z,-0.77
2023-01-29T16:11:33.953Z,-0.80
2023-01-29T16:14:01.813Z,-0.78
2023-01-29T16:16:29.355Z,-0.79
2023-01-29T16:19:01.272Z,-0.97
2023-01-29T16:21:28.508Z,-0.90
2023-01-29T16:23:57.510Z,-0.92
2023-01-29T16:26:36.585Z,-0.92
2023-01-29T16:29:05.345Z,-1.02
2023-01-29T16:31:33.201Z,-1.05
2023-01-29T16:34:09.876Z,-1.02
2023-01-29T16:36:37.105Z,-1.06
2023-01-29T16:39:18.941Z,-1.13
2023-01-29T16:42:02.441Z,-1.12
2023-01-29T16:44:37.850Z,-1.18
2023-01-29T16:47:26.052Z,-1.20
2023-01-29T16:49:55.081Z,-1.23
2023-01-29T16:52:36.164Z,-1.25
2023-01-29T16:55:12.748Z,-1.31
2023-01-29T16:57:40.718Z,-1.38
2023-01-29T17:00:19.201Z,-1.37
2023-01-29T17:02:46.544Z,-1.40
2023-01-29T17:05:26.715Z,-1.38
2023-01-29T17:07:57.962Z,-1.40
2023-01-29T17:10:28.604Z,-1.43
2023-01-29T17:12:59.361Z,-1.47
2023-01-29T17:15:34.127Z,-1.51
2023-01-29T17:18:03.308Z,-1.58
2023-01-29T17:20:31.565Z,-1.58
2023-01-29T17:22:58.783Z,-1.54
2023-01-29T17:25:25.942Z,-1.53
2023-01-29T17:27:53.423Z,-1.51
2023-01-29T17:30:22.855Z,-1.61
2023-01-29T17:32:50.014Z,-1.57
2023-01-29T17:35:17.667Z,-1.66
2023-01-29T17:37:45.183Z,-1.68
2023-01-29T17:40:37.889Z,-1.75
2023-01-29T17:43:05.104Z,-1.73
2023-01-29T17:45:32.226Z,-1.73
2023-01-29T17:47:59.738Z,-1.74
2023-01-29T17:50:28.521Z,-1.80
2023-01-29T17:52:55.693Z,-1.78
2023-01-29T17:55:22.645Z,-1.83
2023-01-29T17:57:50.368Z,-1.90
2023-01-29T18:00:18.629Z,-1.88
2023-01-29T18:02:45.926Z,-1.82
2023-01-29T18:05:13.859Z,-1.83
2023-01-29T18:07:42.276Z,-1.81
2023-01-29T18:10:16.253Z,-1.81
2023-01-29T18:12:43.460Z,-1.83
2023-01-29T18:15:11.215Z,-1.82
2023-01-29T18:17:39.663Z,-1.80
2023-01-29T18:20:25.441Z,-1.78
2023-01-29T18:22:53.014Z,-1.89
2023-01-29T18:25:20.632Z,-1.98
2023-01-29T18:27:47.984Z,-1.98
2023-01-29T18:30:15.574Z,-2.01
2023-01-29T18:32:42.640Z,-2.02
2023-01-29T18:35:09.819Z,-2.02
2023-01-29T18:37:36.933Z,-2.08
2023-01-29T18:40:05.816Z,-2.07
2023-01-29T18:42:33.534Z,-2.12
2023-01-29T18:45:00.720Z,-2.14
2023-01-29T18:47:27.894Z,-2.14
2023-01-29T18:49:55.201Z,-2.14
2023-01-29T18:52:22.425Z,-2.17
2023-01-29T18:54:51.716Z,-2.16
2023-01-29T18:58:25.254Z,-2.22
2023-01-29T19:00:07.244Z,-2.20
2023-01-29T19:02:34.567Z,-2.19
2023-01-29T19:05:01.919Z,-2.29
2023-01-29T19:07:29.581Z,-2.28
2023-01-29T19:09:57.002Z,-2.29
2023-01-29T19:12:24.401Z,-2.34
2023-01-29T19:14:51.650Z,-2.41
2023-01-29T19:17:18.834Z,-2.31
2023-01-29T19:19:46.433Z,-2.34
2023-01-29T19:22:14.333Z,-2.31
2023-01-29T19:24:41.842Z,-2.33
2023-01-29T19:27:08.964Z,-2.39
2023-01-29T19:29:36.080Z,-2.39
2023-01-29T19:32:03.425Z,-2.36
2023-01-29T19:34:30.872Z,-2.39
2023-01-29T19:36:58.077Z,-2.40
2023-01-29T19:39:29.875Z,-2.43
2023-01-29T19:41:57.715Z,-2.38
2023-01-29T19:44:25.530Z,-2.43
2023-01-29T19:46:54.499Z,-2.45
2023-01-29T19:49:21.704Z,-2.47
2023-01-29T19:51:49.031Z,-2.44
2023-01-29T19:54:20.997Z,-2.51
2023-01-29T19:56:48.221Z,-2.49
2023-01-29T19:59:15.428Z,-2.51
2023-01-29T20:01:42.723Z,-2.51
2023-01-29T20:04:11.384Z,-2.50
2023-01-29T20:06:38.729Z,-2.55
2023-01-29T20:09:05.715Z,-2.54
2023-01-29T20:11:32.566Z,-2.53
2023-01-29T20:13:59.721Z,-2.47
2023-01-29T20:16:27.357Z,-2.47
2023-01-29T20:18:54.605Z,-2.51
2023-01-29T20:21:42.822Z,-2.50
2023-01-29T20:24:13.087Z,-2.54
2023-01-29T20:26:40.396Z,-2.52
2023-01-29T20:29:07.605Z,-2.57
2023-01-29T20:31:34.965Z,-2.53
2023-01-29T20:34:02.086Z,-2.56
2023-01-29T20:36:29.117Z,-2.58
2023-01-29T20:38:56.315Z,-2.63
2023-01-29T20:41:23.526Z,-2.61
2023-01-29T20:43:51.011Z,-2.60
2023-01-29T20:46:19.693Z,-2.59
2023-01-29T20:48:46.804Z,-2.67
2023-01-29T20:51:16.548Z,-2.61
2023-01-29T20:53:45.959Z,-2.63
2023-01-29T20:56:14.865Z,-2.65
2023-01-29T20:58:42.318Z,-2.67
2023-01-29T21:01:14.257Z,-2.67
2023-01-29T21:03:41.589Z,-2.67
2023-01-29T21:06:09.726Z,-2.65
2023-01-29T21:08:37.404Z,-2.76
2023-01-29T21:11:06.050Z,-2.71
2023-01-29T21:13:33.232Z,-2.79
2023-01-29T21:16:00.123Z,-2.75
2023-01-29T21:18:27.374Z,-2.82
2023-01-29T21:20:54.724Z,-2.80
2023-01-29T21:23:21.794Z,-2.82
2023-01-29T21:25:48.858Z,-2.84
2023-01-29T21:28:16.380Z,-2.86
2023-01-29T21:30:43.648Z,-2.84
2023-01-29T21:33:10.650Z,-2.83
2023-01-29T21:35:38.476Z,-2.85
2023-01-29T21:38:05.632Z,-2.88
2023-01-29T21:40:32.453Z,-2.92
2023-01-29T21:43:11.563Z,-2.93
2023-01-29T21:45:39.498Z,-2.88
2023-01-29T21:48:06.779Z,-2.88
2023-01-29T21:50:33.838Z,-2.89
2023-01-29T21:53:01.049Z,-2.94
2023-01-29T21:55:27.916Z,-2.94
2023-01-29T21:57:54.865Z,-2.95
2023-01-29T22:00:21.825Z,-2.93
2023-01-29T22:02:50.154Z,-2.89
2023-01-29T22:05:19.779Z,-2.89
2023-01-29T22:07:48.243Z,-2.90
2023-01-29T22:10:17.185Z,-2.87
2023-01-29T22:12:44.840Z,-2.86
2023-01-29T22:15:12.299Z,-2.87
2023-01-29T22:17:41.286Z,-2.91
2023-01-29T22:20:10.041Z,-2.87
2023-01-29T22:22:36.865Z,-2.85
2023-01-29T22:25:04.395Z,-2.82
2023-01-29T22:27:33.151Z,-2.77
2023-01-29T22:30:00.247Z,-2.74
2023-01-29T22:32:27.280Z,-2.75
2023-01-29T22:34:54.262Z,-2.80
2023-01-29T22:37:21.151Z,-2.79
2023-01-29T22:39:48.096Z,-2.84
2023-01-29T22:42:15.139Z,-2.81
2023-01-29T22:44:42.729Z,-2.82
2023-01-29T22:47:09.555Z,-2.73
2023-01-29T22:49:36.396Z,-2.70
2023-01-29T22:52:12.402Z,-2.75
2023-01-29T22:54:40.700Z,-2.79
2023-01-29T22:57:10.294Z,-2.76
2023-01-29T22:59:37.450Z,-2.81
2023-01-29T23:02:04.664Z,-2.84
2023-01-29T23:04:31.582Z,-2.86
2023-01-29T23:06:58.456Z,-2.85
2023-01-29T23:09:25.363Z,-2.86
2023-01-29T23:11:52.230Z,-2.87
2023-01-29T23:14:19.102Z,-2.94
2023-01-29T23:16:45.910Z,-2.92
2023-01-29T23:19:12.922Z,-2.91
2023-01-29T23:21:40.015Z,-2.97
2023-01-29T23:24:08.026Z,-2.99
2023-01-29T23:26:53.376Z,-2.99
2023-01-29T23:29:20.702Z,-3.07
2023-01-29T23:31:47.813Z,-3.15
2023-01-29T23:34:15.196Z,-3.23
2023-01-29T23:36:42.343Z,-3.30
2023-01-29T23:39:09.735Z,-3.46
2023-01-29T23:41:36.601Z,-3.50
2023-01-29T23:44:03.915Z,-3.69
2023-01-29T23:46:31.097Z,-3.54
2023-01-29T23:48:57.934Z,-3.54
2023-01-29T23:51:24.891Z,-3.52
2023-01-29T23:53:51.755Z,-3.48
2023-01-29T23:56:18.772Z,-3.47
2023-01-29T23:58:46.080Z,-3.44
